createdAt,value
2018-04-26T00:00:47.423Z,7.89
2018-04-26T00:01:47.341Z,7.89
2018-04-26T00:02:47.321Z,7.87
2018-04-26T00:03:47.308Z,7.86
2018-04-26T00:04:47.445Z,7.87
2018-04-26T00:05:47.341Z,7.86
2018-04-26T00:06:47.340Z,7.86
2018-04-26T00:07:47.417Z,7.85
2018-04-26T00:08:47.341Z,7.85
2018-04-26T00:09:47.344Z,7.83
2018-04-26T00:10:47.341Z,7.86
2018-04-26T00:11:47.345Z,7.86
2018-04-26T00:12:47.343Z,7.89
2018-04-26T00:13:47.416Z,7.89
2018-04-26T00:14:47.345Z,7.89
2018-04-26T00:15:47.435Z,7.89
2018-04-26T00:16:47.384Z,7.87
2018-04-26T00:17:47.447Z,7.90
2018-04-26T00:18:47.377Z,7.90
2018-04-26T00:19:47.382Z,7.93
2018-04-26T00:20:47.353Z,7.93
2018-04-26T00:21:47.337Z,7.93
2018-04-26T00:22:47.446Z,7.93
2018-04-26T00:23:47.437Z,7.93
2018-04-26T00:24:47.437Z,7.93
2018-04-26T00:25:47.429Z,7.97
2018-04-26T00:26:47.356Z,8.02
2018-04-26T00:27:47.360Z,8.02
2018-04-26T00:28:47.346Z,8.04
2018-04-26T00:29:47.420Z,8.04
2018-04-26T00:30:47.458Z,8.05
2018-04-26T00:31:47.326Z,8.04
2018-04-26T00:32:47.344Z,8.04
2018-04-26T00:33:47.361Z,8.02
2018-04-26T00:34:47.347Z,8.02
2018-04-26T00:35:47.351Z,8.01
2018-04-26T00:36:47.455Z,8.01
2018-04-26T00:37:47.395Z,8.02
2018-04-26T00:38:47.368Z,8.02
2018-04-26T00:39:47.401Z,8.02
2018-04-26T00:40:47.370Z,8.02
2018-04-26T00:41:47.530Z,8.01
2018-04-26T00:42:47.410Z,8.01
2018-04-26T00:43:47.434Z,7.99
2018-04-26T00:44:47.444Z,7.98
2018-04-26T00:45:47.410Z,7.97
2018-04-26T00:46:47.425Z,7.98
2018-04-26T00:47:47.424Z,8.01
2018-04-26T00:48:47.329Z,8.04
2018-04-26T00:49:47.307Z,8.05
2018-04-26T00:50:47.424Z,8.06
2018-04-26T00:51:47.395Z,8.05
2018-04-26T00:52:47.428Z,8.04
2018-04-26T00:53:47.377Z,8.01
2018-04-26T00:54:47.373Z,8.02
2018-04-26T00:55:47.492Z,7.99
2018-04-26T00:56:47.370Z,7.99
2018-04-26T00:57:47.373Z,7.97
2018-04-26T00:58:47.443Z,7.98
2018-04-26T00:59:47.446Z,7.95
2018-04-26T01:00:47.371Z,7.93
2018-04-26T01:01:47.450Z,7.92
2018-04-26T01:02:47.449Z,7.89
2018-04-26T01:03:47.377Z,7.87
2018-04-26T01:04:47.447Z,7.86
2018-04-26T01:05:47.342Z,7.85
2018-04-26T01:06:47.378Z,7.82
2018-04-26T01:07:47.453Z,7.79
2018-04-26T01:08:47.451Z,7.76
2018-04-26T01:09:47.409Z,7.74
2018-04-26T01:10:47.457Z,7.72
2018-04-26T01:11:47.459Z,7.70
2018-04-26T01:12:47.413Z,7.67
2018-04-26T01:13:47.394Z,7.65
2018-04-26T01:14:47.379Z,7.60
2018-04-26T01:15:47.390Z,7.59
2018-04-26T01:16:47.325Z,7.56
2018-04-26T01:17:47.357Z,7.53
2018-04-26T01:18:47.377Z,7.49
2018-04-26T01:19:47.332Z,7.46
2018-04-26T01:20:47.349Z,7.44
2018-04-26T01:21:47.350Z,7.41
2018-04-26T01:22:47.417Z,7.38
2018-04-26T01:23:47.439Z,7.33
2018-04-26T01:24:47.351Z,7.29
2018-04-26T01:25:47.466Z,7.23
2018-04-26T01:26:47.460Z,7.24
2018-04-26T01:27:47.461Z,7.24
2018-04-26T01:28:47.460Z,7.22
2018-04-26T01:29:47.447Z,7.22
2018-04-26T01:30:47.468Z,7.22
2018-04-26T01:31:47.396Z,7.18
2018-04-26T01:32:47.459Z,7.13
2018-04-26T01:33:47.485Z,7.07
2018-04-26T01:34:47.477Z,7.00
2018-04-26T01:35:47.370Z,6.93
2018-04-26T01:36:47.386Z,6.84
2018-04-26T01:37:47.418Z,6.91
2018-04-26T01:38:47.421Z,6.90
2018-04-26T01:39:47.383Z,6.86
2018-04-26T01:40:47.386Z,6.82
2018-04-26T01:41:47.427Z,6.91
2018-04-26T01:42:47.487Z,6.93
2018-04-26T01:43:47.424Z,6.94
2018-04-26T01:44:47.328Z,6.94
2018-04-26T01:45:47.455Z,6.91
2018-04-26T01:46:47.375Z,6.91
2018-04-26T01:47:47.503Z,6.87
2018-04-26T01:48:47.474Z,6.86
2018-04-26T01:49:47.390Z,6.81
2018-04-26T01:50:47.508Z,6.77
2018-04-26T01:51:47.509Z,6.81
2018-04-26T01:52:47.501Z,6.78
2018-04-26T01:53:47.484Z,6.81
2018-04-26T01:54:47.474Z,6.84
2018-04-26T01:55:47.473Z,6.84
2018-04-26T01:56:47.475Z,6.87
2018-04-26T01:57:47.486Z,6.84
2018-04-26T01:58:47.541Z,6.84
2018-04-26T01:59:47.385Z,6.79
2018-04-26T02:00:47.396Z,6.77
2018-04-26T02:01:47.480Z,6.71
2018-04-26T02:02:47.519Z,6.66
2018-04-26T02:03:47.420Z,6.59
2018-04-26T02:04:47.464Z,6.56
2018-04-26T02:05:47.406Z,6.51
2018-04-26T02:06:47.478Z,6.55
2018-04-26T02:07:47.409Z,6.61
2018-04-26T02:08:47.409Z,6.60
2018-04-26T02:09:47.480Z,6.60
2018-04-26T02:10:47.418Z,6.57
2018-04-26T02:11:47.408Z,6.55
2018-04-26T02:12:47.480Z,6.56
2018-04-26T02:13:47.442Z,6.57
2018-04-26T02:14:47.506Z,6.60
2018-04-26T02:15:47.483Z,6.63
2018-04-26T02:16:47.396Z,6.67
2018-04-26T02:17:47.573Z,6.67
2018-04-26T02:18:47.487Z,6.67
2018-04-26T02:19:47.397Z,6.68
2018-04-26T02:20:47.487Z,6.70
2018-04-26T02:21:47.443Z,6.70
2018-04-26T02:22:47.489Z,6.74
2018-04-26T02:23:47.475Z,6.78
2018-04-26T02:24:47.401Z,6.81
2018-04-26T02:25:47.428Z,6.82
2018-04-26T02:26:47.428Z,6.89
2018-04-26T02:27:47.432Z,6.91
2018-04-26T02:28:47.501Z,6.94
2018-04-26T02:29:47.505Z,6.93
2018-04-26T02:30:47.436Z,6.94
2018-04-26T02:31:47.510Z,6.94
2018-04-26T02:32:47.453Z,6.89
2018-04-26T02:33:47.503Z,6.86
2018-04-26T02:34:47.435Z,6.82
2018-04-26T02:35:47.405Z,6.78
2018-04-26T02:36:47.500Z,6.74
2018-04-26T02:37:47.428Z,6.70
2018-04-26T02:38:47.518Z,6.72
2018-04-26T02:39:47.466Z,6.77
2018-04-26T02:40:47.443Z,6.79
2018-04-26T02:41:47.547Z,6.78
2018-04-26T02:42:47.510Z,6.78
2018-04-26T02:43:47.516Z,6.82
2018-04-26T02:44:47.515Z,6.84
2018-04-26T02:45:47.413Z,6.86
2018-04-26T02:46:47.529Z,6.87
2018-04-26T02:47:47.536Z,6.89
2018-04-26T02:48:47.522Z,6.91
2018-04-26T02:49:47.484Z,6.93
2018-04-26T02:50:47.510Z,6.93
2018-04-26T02:51:47.643Z,6.89
2018-04-26T02:52:47.509Z,6.93
2018-04-26T02:53:47.515Z,6.94
2018-04-26T02:54:47.552Z,7.00
2018-04-26T02:55:47.444Z,7.02
2018-04-26T02:56:47.521Z,7.02
2018-04-26T02:57:47.450Z,7.05
2018-04-26T02:58:47.484Z,7.12
2018-04-26T02:59:47.451Z,7.15
2018-04-26T03:00:47.521Z,7.15
2018-04-26T03:01:47.491Z,7.08
2018-04-26T03:02:47.452Z,7.07
2018-04-26T03:03:47.523Z,7.04
2018-04-26T03:04:47.453Z,7.00
2018-04-26T03:05:47.489Z,6.98
2018-04-26T03:06:47.454Z,6.97
2018-04-26T03:07:47.450Z,6.98
2018-04-26T03:08:47.481Z,7.00
2018-04-26T03:09:47.445Z,7.00
2018-04-26T03:10:47.490Z,7.00
2018-04-26T03:11:47.465Z,6.98
2018-04-26T03:12:47.565Z,6.98
2018-04-26T03:13:47.547Z,7.00
2018-04-26T03:14:47.430Z,7.01
2018-04-26T03:15:47.529Z,7.07
2018-04-26T03:16:47.493Z,7.13
2018-04-26T03:17:47.499Z,7.19
2018-04-26T03:18:47.524Z,7.24
2018-04-26T03:19:47.487Z,7.37
2018-04-26T03:20:47.432Z,7.41
2018-04-26T03:21:47.553Z,7.45
2018-04-26T03:22:47.548Z,7.46
2018-04-26T03:23:47.469Z,7.45
2018-04-26T03:24:47.489Z,7.41
2018-04-26T03:25:47.555Z,7.40
2018-04-26T03:26:47.469Z,7.38
2018-04-26T03:27:47.531Z,7.35
2018-04-26T03:28:47.560Z,7.31
2018-04-26T03:29:47.533Z,7.30
2018-04-26T03:30:47.555Z,7.27
2018-04-26T03:31:47.518Z,7.26
2018-04-26T03:32:47.554Z,7.19
2018-04-26T03:33:47.596Z,7.16
2018-04-26T03:34:47.510Z,7.19
2018-04-26T03:35:47.471Z,7.20
2018-04-26T03:36:47.539Z,7.19
2018-04-26T03:37:47.471Z,7.18
2018-04-26T03:38:47.541Z,7.19
2018-04-26T03:39:47.473Z,7.18
2018-04-26T03:40:47.544Z,7.24
2018-04-26T03:41:47.475Z,7.26
2018-04-26T03:42:47.546Z,7.27
2018-04-26T03:43:47.540Z,7.27
2018-04-26T03:44:47.427Z,7.34
2018-04-26T03:45:47.529Z,7.35
2018-04-26T03:46:47.506Z,7.37
2018-04-26T03:47:47.506Z,7.37
2018-04-26T03:48:47.564Z,7.34
2018-04-26T03:49:47.485Z,7.37
2018-04-26T03:50:47.511Z,7.38
2018-04-26T03:51:47.538Z,7.40
2018-04-26T03:52:47.573Z,7.42
2018-04-26T03:53:47.552Z,7.44
2018-04-26T03:54:47.521Z,7.42
2018-04-26T03:55:47.486Z,7.41
2018-04-26T03:56:47.556Z,7.41
2018-04-26T03:57:47.491Z,7.44
2018-04-26T03:58:47.485Z,7.42
2018-04-26T03:59:47.559Z,7.41
2018-04-26T04:00:47.499Z,7.41
2018-04-26T04:01:47.487Z,7.40
2018-04-26T04:02:47.487Z,7.38
2018-04-26T04:03:47.505Z,7.38
2018-04-26T04:04:47.490Z,7.35
2018-04-26T04:05:47.482Z,7.34
2018-04-26T04:06:47.557Z,7.34
2018-04-26T04:07:47.558Z,7.35
2018-04-26T04:08:47.593Z,7.34
2018-04-26T04:09:47.556Z,7.33
2018-04-26T04:10:47.486Z,7.31
2018-04-26T04:11:47.590Z,7.33
2018-04-26T04:12:47.466Z,7.35
2018-04-26T04:13:47.596Z,7.34
2018-04-26T04:14:47.563Z,7.35
2018-04-26T04:15:47.507Z,7.37
2018-04-26T04:16:47.561Z,7.35
2018-04-26T04:17:47.468Z,7.35
2018-04-26T04:18:47.472Z,7.38
2018-04-26T04:19:47.489Z,7.37
2018-04-26T04:20:47.529Z,7.37
2018-04-26T04:21:47.561Z,7.35
2018-04-26T04:22:47.564Z,7.34
2018-04-26T04:23:47.555Z,7.35
2018-04-26T04:24:47.532Z,7.37
2018-04-26T04:25:47.567Z,7.35
2018-04-26T04:26:47.576Z,7.38
2018-04-26T04:27:47.508Z,7.38
2018-04-26T04:28:47.495Z,7.38
2018-04-26T04:29:47.583Z,7.41
2018-04-26T04:30:47.596Z,7.41
2018-04-26T04:31:47.493Z,7.44
2018-04-26T04:32:47.540Z,7.41
2018-04-26T04:33:47.551Z,7.42
2018-04-26T04:34:47.539Z,7.42
2018-04-26T04:35:47.574Z,7.42
2018-04-26T04:36:47.507Z,7.42
2018-04-26T04:37:47.513Z,7.42
2018-04-26T04:38:47.511Z,7.44
2018-04-26T04:39:47.581Z,7.44
2018-04-26T04:40:47.507Z,7.45
2018-04-26T04:41:47.515Z,7.51
2018-04-26T04:42:47.583Z,7.51
2018-04-26T04:43:47.509Z,7.51
2018-04-26T04:44:47.480Z,7.49
2018-04-26T04:45:47.588Z,7.49
2018-04-26T04:46:47.532Z,7.48
2018-04-26T04:47:47.520Z,7.49
2018-04-26T04:48:47.581Z,7.49
2018-04-26T04:49:47.465Z,7.49
2018-04-26T04:50:47.521Z,7.49
2018-04-26T04:51:47.517Z,7.51
2018-04-26T04:52:47.594Z,7.51
2018-04-26T04:53:47.522Z,7.52
2018-04-26T04:54:47.518Z,7.49
2018-04-26T04:55:47.486Z,7.48
2018-04-26T04:56:47.527Z,7.48
2018-04-26T04:57:47.524Z,7.46
2018-04-26T04:58:47.598Z,7.48
2018-04-26T04:59:47.522Z,7.51
2018-04-26T05:00:47.478Z,7.52
2018-04-26T05:01:47.528Z,7.56
2018-04-26T05:02:47.603Z,7.60
2018-04-26T05:03:47.525Z,7.68
2018-04-26T05:04:47.475Z,7.75
2018-04-26T05:05:47.530Z,7.81
2018-04-26T05:06:47.591Z,7.85
2018-04-26T05:07:47.534Z,7.86
2018-04-26T05:08:47.598Z,7.87
2018-04-26T05:09:47.561Z,7.90
2018-04-26T05:10:47.604Z,7.89
2018-04-26T05:11:47.598Z,7.82
2018-04-26T05:12:47.599Z,7.75
2018-04-26T05:13:47.599Z,7.63
2018-04-26T05:14:47.612Z,7.55
2018-04-26T05:15:47.643Z,7.44
2018-04-26T05:16:47.575Z,7.30
2018-04-26T05:17:47.503Z,7.23
2018-04-26T05:18:47.567Z,7.15
2018-04-26T05:19:47.671Z,7.09
2018-04-26T05:20:47.527Z,7.02
2018-04-26T05:21:47.623Z,7.00
2018-04-26T05:22:47.627Z,6.97
2018-04-26T05:23:47.637Z,6.94
2018-04-26T05:24:47.605Z,6.90
2018-04-26T05:25:47.608Z,6.87
2018-04-26T05:26:47.550Z,6.87
2018-04-26T05:27:47.543Z,6.86
2018-04-26T05:28:47.608Z,6.84
2018-04-26T05:29:47.607Z,6.84
2018-04-26T05:30:47.540Z,6.82
2018-04-26T05:31:47.614Z,6.81
2018-04-26T05:32:47.619Z,6.79
2018-04-26T05:33:47.597Z,6.81
2018-04-26T05:34:47.612Z,6.78
2018-04-26T05:35:47.568Z,6.79
2018-04-26T05:36:47.579Z,6.78
2018-04-26T05:37:47.643Z,6.79
2018-04-26T05:38:47.585Z,6.79
2018-04-26T05:39:47.525Z,6.82
2018-04-26T05:40:47.577Z,6.86
2018-04-26T05:41:47.639Z,6.89
2018-04-26T05:42:47.581Z,6.90
2018-04-26T05:43:47.621Z,6.91
2018-04-26T05:44:47.519Z,6.93
2018-04-26T05:45:47.580Z,6.95
2018-04-26T05:46:47.586Z,6.93
2018-04-26T05:47:47.597Z,6.91
2018-04-26T05:48:47.649Z,6.90
2018-04-26T05:49:47.589Z,6.90
2018-04-26T05:50:47.521Z,6.90
2018-04-26T05:51:47.620Z,6.91
2018-04-26T05:52:47.596Z,6.91
2018-04-26T05:53:47.591Z,6.91
2018-04-26T05:54:47.642Z,6.94
2018-04-26T05:55:47.689Z,7.00
2018-04-26T05:56:47.559Z,7.02
2018-04-26T05:57:47.567Z,7.05
2018-04-26T05:58:47.561Z,7.09
2018-04-26T05:59:47.630Z,7.12
2018-04-26T06:00:47.564Z,7.18
2018-04-26T06:01:47.561Z,7.20
2018-04-26T06:02:47.630Z,7.27
2018-04-26T06:03:47.622Z,7.30
2018-04-26T06:04:47.651Z,7.29
2018-04-26T06:05:47.606Z,7.34
2018-04-26T06:06:47.575Z,7.42
2018-04-26T06:07:47.632Z,7.49
2018-04-26T06:08:47.570Z,7.55
2018-04-26T06:09:47.633Z,7.60
2018-04-26T06:10:47.573Z,7.67
2018-04-26T06:11:47.568Z,7.71
2018-04-26T06:12:47.645Z,7.74
2018-04-26T06:13:47.566Z,7.74
2018-04-26T06:14:47.646Z,7.74
2018-04-26T06:15:47.570Z,7.72
2018-04-26T06:16:47.652Z,7.72
2018-04-26T06:17:47.639Z,7.72
2018-04-26T06:18:47.570Z,7.70
2018-04-26T06:19:47.641Z,7.67
2018-04-26T06:20:47.591Z,7.60
2018-04-26T06:21:47.645Z,7.53
2018-04-26T06:22:47.575Z,7.46
2018-04-26T06:23:47.614Z,7.44
2018-04-26T06:24:47.650Z,7.38
2018-04-26T06:25:47.644Z,7.37
2018-04-26T06:26:47.579Z,7.34
2018-04-26T06:27:47.580Z,7.34
2018-04-26T06:28:47.644Z,7.34
2018-04-26T06:29:47.588Z,7.37
2018-04-26T06:30:47.651Z,7.37
2018-04-26T06:31:47.652Z,7.42
2018-04-26T06:32:47.584Z,7.42
2018-04-26T06:33:47.577Z,7.38
2018-04-26T06:34:47.651Z,7.35
2018-04-26T06:35:47.686Z,7.34
2018-04-26T06:36:47.552Z,7.34
2018-04-26T06:37:47.638Z,7.31
2018-04-26T06:38:47.607Z,7.31
2018-04-26T06:39:47.555Z,7.35
2018-04-26T06:40:47.542Z,7.35
2018-04-26T06:41:47.581Z,7.38
2018-04-26T06:42:47.547Z,7.38
2018-04-26T06:43:47.595Z,7.42
2018-04-26T06:44:47.528Z,7.35
2018-04-26T06:45:47.599Z,7.31
2018-04-26T06:46:47.580Z,7.37
2018-04-26T06:47:47.772Z,7.35
2018-04-26T06:48:47.681Z,7.34
2018-04-26T06:49:47.694Z,7.37
2018-04-26T06:50:47.636Z,7.42
2018-04-26T06:51:47.580Z,7.42
2018-04-26T06:52:47.660Z,7.42
2018-04-26T06:53:47.696Z,7.41
2018-04-26T06:54:47.623Z,7.40
2018-04-26T06:55:47.621Z,7.37
2018-04-26T06:56:47.599Z,7.41
2018-04-26T06:57:47.671Z,7.44
2018-04-26T06:58:47.597Z,7.44
2018-04-26T06:59:47.708Z,7.45
2018-04-26T07:00:47.673Z,7.45
2018-04-26T07:01:47.599Z,7.45
2018-04-26T07:02:47.604Z,7.48
2018-04-26T07:03:47.671Z,7.49
2018-04-26T07:04:47.597Z,7.52
2018-04-26T07:05:47.719Z,7.53
2018-04-26T07:06:47.633Z,7.64
2018-04-26T07:07:47.649Z,7.83
2018-04-26T07:08:47.654Z,7.95
2018-04-26T07:09:47.578Z,7.99
2018-04-26T07:10:47.674Z,7.97
2018-04-26T07:11:47.599Z,7.95
2018-04-26T07:12:47.751Z,7.90
2018-04-26T07:13:47.637Z,7.82
2018-04-26T07:14:48.517Z,7.72
2018-04-26T07:15:47.584Z,7.68
2018-04-26T07:16:47.628Z,7.64
2018-04-26T07:17:47.679Z,7.58
2018-04-26T07:18:47.678Z,7.45
2018-04-26T07:19:47.686Z,7.42
2018-04-26T07:20:47.610Z,7.37
2018-04-26T07:21:47.680Z,7.37
2018-04-26T07:22:47.622Z,7.37
2018-04-26T07:23:47.680Z,7.38
2018-04-26T07:24:47.690Z,7.35
2018-04-26T07:25:47.613Z,7.35
2018-04-26T07:26:47.687Z,7.41
2018-04-26T07:27:47.567Z,7.44
2018-04-26T07:28:47.573Z,7.49
2018-04-26T07:29:47.639Z,7.58
2018-04-26T07:30:47.591Z,7.58
2018-04-26T07:31:47.676Z,7.63
2018-04-26T07:32:47.621Z,7.67
2018-04-26T07:33:47.555Z,7.71
2018-04-26T07:34:47.704Z,7.70
2018-04-26T07:35:47.672Z,7.72
2018-04-26T07:36:47.584Z,7.75
2018-04-26T07:37:47.670Z,7.78
2018-04-26T07:38:47.641Z,7.82
2018-04-26T07:39:47.678Z,7.83
2018-04-26T07:40:47.676Z,7.85
2018-04-26T07:41:47.676Z,7.89
2018-04-26T07:42:47.565Z,7.98
2018-04-26T07:43:47.564Z,8.04
2018-04-26T07:44:47.647Z,8.02
2018-04-26T07:45:47.561Z,8.11
2018-04-26T07:46:47.703Z,8.17
2018-04-26T07:47:47.638Z,8.20
2018-04-26T07:48:47.723Z,8.23
2018-04-26T07:49:47.648Z,8.30
2018-04-26T07:50:47.702Z,8.42
2018-04-26T07:51:47.635Z,8.61
2018-04-26T07:52:47.633Z,8.78
2018-04-26T07:53:47.700Z,9.05
2018-04-26T07:54:47.636Z,9.30
2018-04-26T07:55:47.705Z,9.53
2018-04-26T07:56:47.638Z,9.75
2018-04-26T07:57:47.635Z,9.89
2018-04-26T07:58:47.702Z,9.95
2018-04-26T07:59:47.634Z,9.91
2018-04-26T08:00:47.726Z,10.04
2018-04-26T08:01:47.757Z,10.11
2018-04-26T08:02:47.586Z,10.35
2018-04-26T08:03:47.637Z,10.58
2018-04-26T08:04:47.661Z,10.64
2018-04-26T08:05:47.685Z,10.65
2018-04-26T08:06:47.609Z,10.91
2018-04-26T08:07:47.605Z,11.09
2018-04-26T08:08:47.562Z,11.24
2018-04-26T08:09:47.608Z,11.36
2018-04-26T08:10:47.665Z,11.35
2018-04-26T08:11:47.682Z,11.36
2018-04-26T08:12:47.658Z,11.18
2018-04-26T08:13:47.610Z,10.84
2018-04-26T08:14:47.664Z,10.64
2018-04-26T08:15:47.662Z,10.36
2018-04-26T08:16:47.700Z,10.20
2018-04-26T08:17:47.577Z,10.18
2018-04-26T08:18:47.640Z,10.14
2018-04-26T08:19:47.619Z,10.21
2018-04-26T08:20:47.642Z,10.31
2018-04-26T08:21:47.592Z,10.24
2018-04-26T08:22:47.610Z,10.25
2018-04-26T08:23:47.678Z,10.25
2018-04-26T08:24:47.608Z,10.23
2018-04-26T08:25:47.613Z,10.14
2018-04-26T08:26:47.760Z,10.16
2018-04-26T08:27:47.754Z,10.04
2018-04-26T08:28:47.693Z,9.94
2018-04-26T08:29:47.755Z,9.86
2018-04-26T08:30:47.755Z,9.80
2018-04-26T08:31:47.688Z,9.72
2018-04-26T08:32:47.690Z,9.71
2018-04-26T08:33:47.630Z,9.68
2018-04-26T08:34:47.743Z,9.71
2018-04-26T08:35:47.743Z,9.72
2018-04-26T08:36:47.703Z,9.75
2018-04-26T08:37:47.704Z,9.91
2018-04-26T08:38:47.695Z,10.01
2018-04-26T08:39:47.726Z,10.13
2018-04-26T08:40:47.731Z,10.32
2018-04-26T08:41:47.712Z,10.53
2018-04-26T08:42:47.693Z,10.71
2018-04-26T08:43:47.766Z,10.86
2018-04-26T08:44:47.639Z,10.83
2018-04-26T08:45:47.637Z,10.81
2018-04-26T08:46:47.735Z,10.71
2018-04-26T08:47:47.765Z,10.81
2018-04-26T08:48:47.653Z,11.17
2018-04-26T08:49:47.644Z,11.05
2018-04-26T08:50:47.696Z,11.05
2018-04-26T08:51:47.702Z,11.00
2018-04-26T08:52:47.771Z,11.05
2018-04-26T08:53:47.717Z,11.13
2018-04-26T08:54:47.699Z,11.22
2018-04-26T08:55:47.704Z,11.21
2018-04-26T08:56:47.777Z,11.13
2018-04-26T08:57:47.649Z,10.97
2018-04-26T08:58:47.676Z,10.94
2018-04-26T08:59:47.853Z,10.95
2018-04-26T09:00:47.645Z,11.10
2018-04-26T09:01:47.770Z,11.11
2018-04-26T09:02:47.708Z,11.21
2018-04-26T09:03:47.685Z,11.28
2018-04-26T09:04:47.714Z,11.32
2018-04-26T09:05:47.747Z,11.60
2018-04-26T09:06:47.712Z,11.72
2018-04-26T09:07:47.743Z,11.67
2018-04-26T09:08:47.748Z,11.69
2018-04-26T09:09:47.686Z,11.61
2018-04-26T09:10:47.781Z,11.50
2018-04-26T09:11:47.685Z,11.31
2018-04-26T09:12:47.753Z,11.24
2018-04-26T09:13:47.683Z,11.05
2018-04-26T09:14:47.756Z,10.97
2018-04-26T09:15:47.762Z,10.84
2018-04-26T09:16:47.683Z,10.74
2018-04-26T09:17:47.689Z,10.61
2018-04-26T09:18:47.755Z,10.60
2018-04-26T09:19:47.687Z,10.52
2018-04-26T09:20:47.774Z,10.53
2018-04-26T09:21:47.691Z,10.56
2018-04-26T09:22:47.756Z,10.53
2018-04-26T09:23:47.685Z,10.58
2018-04-26T09:24:47.765Z,10.58
2018-04-26T09:25:47.698Z,10.71
2018-04-26T09:26:47.645Z,10.77
2018-04-26T09:27:47.744Z,10.88
2018-04-26T09:28:47.709Z,11.07
2018-04-26T09:29:47.708Z,11.27
2018-04-26T09:30:47.673Z,11.53
2018-04-26T09:31:47.699Z,11.72
2018-04-26T09:32:47.647Z,11.76
2018-04-26T09:33:47.833Z,12.08
2018-04-26T09:34:47.692Z,12.16
2018-04-26T09:35:47.707Z,11.98
2018-04-26T09:36:47.767Z,12.09
2018-04-26T09:37:47.700Z,12.33
2018-04-26T09:38:47.814Z,12.48
2018-04-26T09:39:47.763Z,12.64
2018-04-26T09:40:47.697Z,12.37
2018-04-26T09:41:47.700Z,12.44
2018-04-26T09:42:47.775Z,12.65
2018-04-26T09:43:47.700Z,12.72
2018-04-26T09:44:47.771Z,12.60
2018-04-26T09:45:47.708Z,12.62
2018-04-26T09:46:47.770Z,12.73
2018-04-26T09:47:47.778Z,12.73
2018-04-26T09:48:47.706Z,12.91
2018-04-26T09:49:47.777Z,13.09
2018-04-26T09:50:47.704Z,13.03
2018-04-26T09:51:47.706Z,13.17
2018-04-26T09:52:47.780Z,13.21
2018-04-26T09:53:47.707Z,13.07
2018-04-26T09:54:47.780Z,12.55
2018-04-26T09:55:47.739Z,12.65
2018-04-26T09:56:47.777Z,13.07
2018-04-26T09:57:47.706Z,12.94
2018-04-26T09:58:47.776Z,12.69
2018-04-26T09:59:47.712Z,12.60
2018-04-26T10:00:47.780Z,12.69
2018-04-26T10:01:47.828Z,12.82
2018-04-26T10:02:47.717Z,12.82
2018-04-26T10:03:47.785Z,12.91
2018-04-26T10:04:47.783Z,13.10
2018-04-26T10:05:47.714Z,12.94
2018-04-26T10:06:47.768Z,13.00
2018-04-26T10:07:47.776Z,12.76
2018-04-26T10:08:47.733Z,12.48
2018-04-26T10:09:47.736Z,12.28
2018-04-26T10:10:47.693Z,12.22
2018-04-26T10:11:47.770Z,12.18
2018-04-26T10:12:47.784Z,12.21
2018-04-26T10:13:47.697Z,12.29
2018-04-26T10:14:47.772Z,12.40
2018-04-26T10:15:47.669Z,12.46
2018-04-26T10:16:47.722Z,12.75
2018-04-26T10:17:47.719Z,12.82
2018-04-26T10:18:47.796Z,12.83
2018-04-26T10:19:47.794Z,12.87
2018-04-26T10:20:47.729Z,13.00
2018-04-26T10:21:47.797Z,12.92
2018-04-26T10:22:47.797Z,12.79
2018-04-26T10:23:47.824Z,12.76
2018-04-26T10:24:47.796Z,12.62
2018-04-26T10:25:47.728Z,12.60
2018-04-26T10:26:47.726Z,12.44
2018-04-26T10:27:47.800Z,12.36
2018-04-26T10:28:47.798Z,12.16
2018-04-26T10:29:47.731Z,12.01
2018-04-26T10:30:47.801Z,11.83
2018-04-26T10:31:47.728Z,11.69
2018-04-26T10:32:47.801Z,11.36
2018-04-26T10:33:47.804Z,11.14
2018-04-26T10:34:47.804Z,10.75
2018-04-26T10:35:47.801Z,10.52
2018-04-26T10:36:47.806Z,10.32
2018-04-26T10:37:47.733Z,10.21
2018-04-26T10:38:47.802Z,10.20
2018-04-26T10:39:47.756Z,10.16
2018-04-26T10:40:47.807Z,10.23
2018-04-26T10:41:47.738Z,10.24
2018-04-26T10:42:47.809Z,10.41
2018-04-26T10:43:47.745Z,10.56
2018-04-26T10:44:47.810Z,10.67
2018-04-26T10:45:47.739Z,10.87
2018-04-26T10:46:47.858Z,11.17
2018-04-26T10:47:47.774Z,11.42
2018-04-26T10:48:47.840Z,11.73
2018-04-26T10:49:47.846Z,12.01
2018-04-26T10:50:47.788Z,12.22
2018-04-26T10:51:47.825Z,12.35
2018-04-26T10:52:47.767Z,12.46
2018-04-26T10:53:47.843Z,12.44
2018-04-26T10:54:47.837Z,12.48
2018-04-26T10:55:47.911Z,12.57
2018-04-26T10:56:47.803Z,12.71
2018-04-26T10:57:47.798Z,13.03
2018-04-26T10:58:47.806Z,12.86
2018-04-26T10:59:47.809Z,12.72
2018-04-26T11:00:47.700Z,12.96
2018-04-26T11:01:47.764Z,13.18
2018-04-26T11:02:47.810Z,13.36
2018-04-26T11:03:47.803Z,13.59
2018-04-26T11:04:47.771Z,13.59
2018-04-26T11:05:47.724Z,13.68
2018-04-26T11:06:47.854Z,13.81
2018-04-26T11:07:47.741Z,14.07
2018-04-26T11:08:47.839Z,14.04
2018-04-26T11:09:47.778Z,14.13
2018-04-26T11:10:47.720Z,14.29
2018-04-26T11:11:47.842Z,14.29
2018-04-26T11:12:47.733Z,14.73
2018-04-26T11:13:47.778Z,14.84
2018-04-26T11:14:47.820Z,14.83
2018-04-26T11:15:47.805Z,14.96
2018-04-26T11:16:47.859Z,14.94
2018-04-26T11:17:47.852Z,14.65
2018-04-26T11:18:47.802Z,14.58
2018-04-26T11:20:47.868Z,14.61
2018-04-26T11:21:47.796Z,14.60
2018-04-26T11:22:47.741Z,14.72
2018-04-26T11:24:47.851Z,14.44
2018-04-26T11:25:47.759Z,14.47
2018-04-26T11:26:47.837Z,14.80
2018-04-26T11:27:47.767Z,15.03
2018-04-26T11:28:47.766Z,14.98
2018-04-26T11:29:47.770Z,14.73
2018-04-26T11:30:47.853Z,14.36
2018-04-26T11:31:47.767Z,14.00
2018-04-26T11:32:47.864Z,13.53
2018-04-26T11:33:47.770Z,13.38
2018-04-26T11:34:47.845Z,13.42
2018-04-26T11:35:47.840Z,13.40
2018-04-26T11:36:47.872Z,13.27
2018-04-26T11:37:47.773Z,13.10
2018-04-26T11:38:47.844Z,13.10
2018-04-26T11:39:47.787Z,13.27
2018-04-26T11:40:47.846Z,13.54
2018-04-26T11:41:47.774Z,14.00
2018-04-26T11:42:47.847Z,14.27
2018-04-26T11:43:47.775Z,14.39
2018-04-26T11:44:47.844Z,14.29
2018-04-26T11:45:47.850Z,14.13
2018-04-26T11:46:47.925Z,13.89
2018-04-26T11:47:47.755Z,13.70
2018-04-26T11:48:47.788Z,13.57
2018-04-26T11:49:47.734Z,13.61
2018-04-26T11:50:47.720Z,13.57
2018-04-26T11:51:47.844Z,13.49
2018-04-26T11:52:47.810Z,13.50
2018-04-26T11:53:47.759Z,13.36
2018-04-26T11:54:47.802Z,13.27
2018-04-26T11:55:47.839Z,12.87
2018-04-26T11:56:47.749Z,12.03
2018-04-26T11:57:47.830Z,11.43
2018-04-26T11:58:47.728Z,11.07
2018-04-26T11:59:47.749Z,10.71
2018-04-26T12:00:47.830Z,10.57
2018-04-26T12:01:47.755Z,10.54
2018-04-26T12:02:47.847Z,10.42
2018-04-26T12:03:47.837Z,10.41
2018-04-26T12:04:47.814Z,10.46
2018-04-26T12:05:47.748Z,10.54
2018-04-26T12:06:47.880Z,10.56
2018-04-26T12:07:47.913Z,10.46
2018-04-26T12:08:47.888Z,10.38
2018-04-26T12:09:47.781Z,10.28
2018-04-26T12:10:47.894Z,10.23
2018-04-26T12:11:47.894Z,10.14
2018-04-26T12:12:47.884Z,9.95
2018-04-26T12:13:47.831Z,9.93
2018-04-26T12:14:47.881Z,9.87
2018-04-26T12:15:47.882Z,9.83
2018-04-26T12:16:47.800Z,9.79
2018-04-26T12:17:47.729Z,9.78
2018-04-26T12:18:47.815Z,9.71
2018-04-26T12:19:47.739Z,9.57
2018-04-26T12:20:47.734Z,9.55
2018-04-26T12:21:47.743Z,9.51
2018-04-26T12:22:47.854Z,9.39
2018-04-26T12:23:47.735Z,9.22
2018-04-26T12:24:47.806Z,9.16
2018-04-26T12:25:47.769Z,9.12
2018-04-26T12:26:47.903Z,9.08
2018-04-26T12:27:47.898Z,9.07
2018-04-26T12:28:47.814Z,9.08
2018-04-26T12:29:47.775Z,9.07
2018-04-26T12:30:47.897Z,9.05
2018-04-26T12:31:47.847Z,9.05
2018-04-26T12:32:47.784Z,9.04
2018-04-26T12:33:47.905Z,9.02
2018-04-26T12:34:47.849Z,9.02
2018-04-26T12:35:47.844Z,9.07
2018-04-26T12:36:47.849Z,9.08
2018-04-26T12:37:47.840Z,9.19
2018-04-26T12:38:47.862Z,9.20
2018-04-26T12:39:47.835Z,9.23
2018-04-26T12:40:47.848Z,9.27
2018-04-26T12:41:47.911Z,9.27
2018-04-26T12:42:47.788Z,9.30
2018-04-26T12:43:47.851Z,9.22
2018-04-26T12:44:47.790Z,9.19
2018-04-26T12:45:47.920Z,9.18
2018-04-26T12:46:47.787Z,9.18
2018-04-26T12:47:47.886Z,9.30
2018-04-26T12:48:47.850Z,9.32
2018-04-26T12:49:47.921Z,9.43
2018-04-26T12:50:47.843Z,9.50
2018-04-26T12:51:47.795Z,9.69
2018-04-26T12:52:47.815Z,9.82
2018-04-26T12:53:47.919Z,10.00
2018-04-26T12:54:47.864Z,10.28
2018-04-26T12:55:47.909Z,10.60
2018-04-26T12:56:47.907Z,10.87
2018-04-26T12:57:47.856Z,11.17
2018-04-26T12:58:47.852Z,11.50
2018-04-26T12:59:47.909Z,11.57
2018-04-26T13:00:47.887Z,11.82
2018-04-26T13:01:48.013Z,12.12
2018-04-26T13:02:47.893Z,12.13
2018-04-26T13:03:47.923Z,12.26
2018-04-26T13:04:47.863Z,12.50
2018-04-26T13:05:47.861Z,12.60
2018-04-26T13:06:47.866Z,12.51
2018-04-26T13:07:47.836Z,12.65
2018-04-26T13:08:47.879Z,12.60
2018-04-26T13:09:47.839Z,12.32
2018-04-26T13:10:47.864Z,12.03
2018-04-26T13:11:47.916Z,11.98